createdAt,value
2023-01-15T00:02:16.749Z,97630.88
2023-01-15T00:04:44.202Z,97627.00
2023-01-15T00:07:11.223Z,97626.22
2023-01-15T00:09:38.389Z,97616.38
2023-01-15T00:12:05.790Z,97620.47
2023-01-15T00:14:32.929Z,97617.31
2023-01-15T00:16:59.883Z,97608.50
2023-01-15T00:19:26.999Z,97601.63
2023-01-15T00:21:54.269Z,97596.28
2023-01-15T00:24:39.977Z,97598.41
2023-01-15T00:27:29.458Z,97597.91
2023-01-15T00:29:56.867Z,97593.47
2023-01-15T00:32:23.770Z,97594.84
2023-01-15T00:34:50.957Z,97586.44
2023-01-15T00:37:17.929Z,97583.63
2023-01-15T00:39:45.183Z,97588.31
2023-01-15T00:42:12.827Z,97586.34
2023-01-15T00:44:40.221Z,97576.03
2023-01-15T00:47:09.100Z,97576.84
2023-01-15T00:49:36.295Z,97578.19
2023-01-15T00:52:03.178Z,97581.00
2023-01-15T00:54:30.658Z,97575.53
2023-01-15T00:56:57.557Z,97570.03
2023-01-15T00:59:24.847Z,97569.69
2023-01-15T01:01:52.107Z,97566.69
2023-01-15T01:04:19.447Z,97565.81
2023-01-15T01:06:46.495Z,97558.13
2023-01-15T01:09:16.185Z,97560.31
2023-01-15T01:11:43.110Z,97556.16
2023-01-15T01:14:12.228Z,97551.94
2023-01-15T01:16:42.080Z,97542.91
2023-01-15T01:19:17.900Z,97546.31
2023-01-15T01:21:45.776Z,97539.09
2023-01-15T01:24:17.958Z,97534.44
2023-01-15T01:26:46.018Z,97539.19
2023-01-15T01:29:20.818Z,97532.28
2023-01-15T01:31:48.482Z,97524.78
2023-01-15T01:34:15.742Z,97530.59
2023-01-15T01:36:44.949Z,97523.94
2023-01-15T01:39:19.618Z,97508.91
2023-01-15T01:41:48.013Z,97509.38
2023-01-15T01:44:33.529Z,97494.81
2023-01-15T01:47:14.982Z,97489.16
2023-01-15T01:49:46.470Z,97482.69
2023-01-15T01:52:27.038Z,97478.16
2023-01-15T01:54:54.457Z,97485.50
2023-01-15T01:57:23.485Z,97473.19
2023-01-15T01:59:51.296Z,97479.97
2023-01-15T02:02:23.067Z,97484.75
2023-01-15T02:04:51.351Z,97482.03
2023-01-15T02:07:18.334Z,97473.88
2023-01-15T02:09:46.051Z,97475.28
2023-01-15T02:12:28.398Z,97455.53
2023-01-15T02:15:32.048Z,97460.78
2023-01-15T02:18:19.069Z,97459.38
2023-01-15T02:20:58.215Z,97463.91
2023-01-15T02:23:53.059Z,97460.63
2023-01-15T02:26:58.826Z,97454.16
2023-01-15T02:29:37.732Z,97451.13
2023-01-15T02:32:13.843Z,97448.09
2023-01-15T02:34:51.703Z,97449.31
2023-01-15T02:37:27.454Z,97444.31
2023-01-15T02:39:59.773Z,97441.78
2023-01-15T02:42:30.683Z,97444.22
2023-01-15T02:45:04.068Z,97441.97
2023-01-15T02:47:38.233Z,97446.50
2023-01-15T02:50:11.272Z,97447.59
2023-01-15T02:52:47.196Z,97434.88
2023-01-15T02:55:31.188Z,97444.97
2023-01-15T02:58:07.463Z,97436.88
2023-01-15T03:00:43.318Z,97430.56
2023-01-15T03:03:31.231Z,97430.75
2023-01-15T03:06:08.715Z,97428.22
2023-01-15T03:08:36.416Z,97422.94
2023-01-15T03:11:15.715Z,97422.31
2023-01-15T03:13:42.826Z,97414.84
2023-01-15T03:16:40.052Z,97423.22
2023-01-15T03:19:47.823Z,97421.56
2023-01-15T03:22:44.284Z,97407.59
2023-01-15T03:25:27.472Z,97400.06
2023-01-15T03:28:00.141Z,97400.06
2023-01-15T03:30:27.515Z,97396.03
2023-01-15T03:32:55.478Z,97389.63
2023-01-15T03:35:49.708Z,97386.03
2023-01-15T03:38:21.428Z,97376.97
2023-01-15T03:41:10.116Z,97368.03
2023-01-15T03:43:50.814Z,97367.50
2023-01-15T03:46:35.729Z,97353.56
2023-01-15T03:49:13.666Z,97355.69
2023-01-15T03:51:54.518Z,97346.78
2023-01-15T03:54:53.132Z,97350.50
2023-01-15T03:57:36.959Z,97354.41
2023-01-15T04:00:22.639Z,97337.34
2023-01-15T04:02:54.527Z,97326.34
2023-01-15T04:05:24.254Z,97330.41
2023-01-15T04:07:54.644Z,97325.69
2023-01-15T04:10:21.687Z,97320.34
2023-01-15T04:12:49.451Z,97321.31
2023-01-15T04:15:17.323Z,97323.81
2023-01-15T04:17:44.573Z,97316.03
2023-01-15T04:20:13.177Z,97308.44
2023-01-15T04:22:40.579Z,97311.59
2023-01-15T04:25:08.963Z,97299.66
2023-01-15T04:27:36.391Z,97312.53
2023-01-15T04:30:03.678Z,97301.59
2023-01-15T04:32:30.763Z,97304.06
2023-01-15T04:34:57.668Z,97298.16
2023-01-15T04:37:24.811Z,97302.44
2023-01-15T04:39:51.865Z,97304.16
2023-01-15T04:42:37.561Z,97300.50
2023-01-15T04:45:04.839Z,97295.50
2023-01-15T04:47:32.007Z,97289.22
2023-01-15T04:49:58.901Z,97290.81
2023-01-15T04:52:26.145Z,97285.00
2023-01-15T04:54:55.908Z,97289.13
2023-01-15T04:57:23.031Z,97288.69
2023-01-15T04:59:49.968Z,97289.53
2023-01-15T05:02:17.562Z,97299.75
2023-01-15T05:04:44.720Z,97283.63
2023-01-15T05:07:11.900Z,97300.81
2023-01-15T05:09:38.972Z,97287.44
2023-01-15T05:12:06.436Z,97287.19
2023-01-15T05:14:33.327Z,97285.00
2023-01-15T05:17:00.551Z,97281.63
2023-01-15T05:19:27.608Z,97288.22
2023-01-15T05:21:54.852Z,97279.44
2023-01-15T05:24:21.796Z,97294.03
2023-01-15T05:26:48.939Z,97280.94
2023-01-15T05:29:16.115Z,97287.00
2023-01-15T05:31:45.310Z,97269.19
2023-01-15T05:34:13.247Z,97275.13
2023-01-15T05:36:40.957Z,97270.41
2023-01-15T05:39:08.286Z,97273.97
2023-01-15T05:41:51.546Z,97284.53
2023-01-15T05:44:20.672Z,97283.03
2023-01-15T05:46:49.408Z,97274.28
2023-01-15T05:49:22.392Z,97268.34
2023-01-15T05:51:51.001Z,97259.06
2023-01-15T05:54:24.894Z,97262.34
2023-01-15T05:56:53.308Z,97261.06
2023-01-15T05:59:24.624Z,97258.78
2023-01-15T06:01:52.956Z,97249.41
2023-01-15T06:04:25.084Z,97250.97
2023-01-15T06:06:56.549Z,97264.34
2023-01-15T06:09:24.746Z,97266.19
2023-01-15T06:11:53.700Z,97269.53
2023-01-15T06:14:21.015Z,97253.31
2023-01-15T06:16:48.171Z,97239.59
2023-01-15T06:19:15.412Z,97248.56
2023-01-15T06:21:42.795Z,97236.88
2023-01-15T06:24:09.864Z,97246.59
2023-01-15T06:26:39.674Z,97243.31
2023-01-15T06:29:06.824Z,97237.06
2023-01-15T06:31:34.389Z,97248.03
2023-01-15T06:34:01.415Z,97253.22
2023-01-15T06:36:29.796Z,97236.88
2023-01-15T06:38:56.972Z,97238.66
2023-01-15T06:41:45.542Z,97242.13
2023-01-15T06:44:35.467Z,97236.13
2023-01-15T06:47:23.018Z,97235.50
2023-01-15T06:49:57.847Z,97234.44
2023-01-15T06:52:28.526Z,97236.13
2023-01-15T06:54:55.998Z,97237.59
2023-01-15T06:57:23.353Z,97244.97
2023-01-15T06:59:51.338Z,97232.31
2023-01-15T07:02:19.349Z,97224.56
2023-01-15T07:04:48.092Z,97227.09
2023-01-15T07:07:18.572Z,97235.94
2023-01-15T07:09:45.758Z,97233.19
2023-01-15T07:12:13.206Z,97235.94
2023-01-15T07:14:40.205Z,97229.09
2023-01-15T07:17:07.426Z,97238.47
2023-01-15T07:19:34.384Z,97235.34
2023-01-15T07:22:01.732Z,97239.22
2023-01-15T07:24:28.640Z,97236.38
2023-01-15T07:26:55.959Z,97243.16
2023-01-15T07:29:23.483Z,97245.66
2023-01-15T07:31:51.612Z,97241.00
2023-01-15T07:34:19.026Z,97253.47
2023-01-15T07:36:46.383Z,97246.38
2023-01-15T07:39:13.498Z,97244.81
2023-01-15T07:41:59.803Z,97243.16
2023-01-15T07:44:45.612Z,97242.81
2023-01-15T07:47:44.080Z,97245.66
2023-01-15T07:50:24.537Z,97240.81
2023-01-15T07:52:53.403Z,97239.00
2023-01-15T07:55:22.129Z,97236.16
2023-01-15T07:57:49.463Z,97232.16
2023-01-15T08:00:22.921Z,97223.50
2023-01-15T08:02:50.944Z,97208.22
2023-01-15T08:05:19.222Z,97213.91
2023-01-15T08:07:47.373Z,97199.78
2023-01-15T08:10:14.668Z,97200.84
2023-01-15T08:13:00.836Z,97204.44
2023-01-15T08:15:38.907Z,97209.56
2023-01-15T08:18:07.282Z,97210.75
2023-01-15T08:20:36.447Z,97218.97
2023-01-15T08:23:04.063Z,97207.69
2023-01-15T08:25:31.126Z,97223.63
2023-01-15T08:28:03.262Z,97211.81
2023-01-15T08:30:30.405Z,97215.19
2023-01-15T08:33:03.301Z,97218.88
2023-01-15T08:35:34.248Z,97225.09
2023-01-15T08:38:06.715Z,97209.91
2023-01-15T08:40:57.653Z,97209.91
2023-01-15T08:43:27.377Z,97213.47
2023-01-15T08:46:01.783Z,97212.75
2023-01-15T08:48:31.966Z,97211.78
2023-01-15T08:50:59.402Z,97207.16
2023-01-15T08:53:26.736Z,97202.19
2023-01-15T08:55:53.720Z,97210.94
2023-01-15T08:58:20.994Z,97202.28
2023-01-15T09:00:48.722Z,97201.25
2023-01-15T09:03:16.069Z,97196.91
2023-01-15T09:05:43.154Z,97203.44
2023-01-15T09:08:10.346Z,97197.50
2023-01-15T09:10:38.540Z,97202.78
2023-01-15T09:13:05.865Z,97197.75
2023-01-15T09:15:34.000Z,97202.78
2023-01-15T09:18:01.148Z,97207.22
2023-01-15T09:20:28.090Z,97205.94
2023-01-15T09:22:55.342Z,97208.03
2023-01-15T09:25:24.407Z,97204.47
2023-01-15T09:27:55.125Z,97210.16
2023-01-15T09:30:22.839Z,97206.97
2023-01-15T09:32:50.135Z,97194.16
2023-01-15T09:35:17.200Z,97188.44
2023-01-15T09:37:44.463Z,97182.03
2023-01-15T09:40:57.610Z,97181.38
2023-01-15T09:43:54.739Z,97175.13
2023-01-15T09:46:46.747Z,97180.22
2023-01-15T09:49:49.967Z,97180.41
2023-01-15T09:52:22.745Z,97180.75
2023-01-15T09:55:15.534Z,97169.97
2023-01-15T09:57:46.430Z,97172.31
2023-01-15T10:00:24.745Z,97161.94
2023-01-15T10:02:59.142Z,97165.13
2023-01-15T10:05:41.706Z,97163.41
2023-01-15T10:08:34.737Z,97150.00
2023-01-15T10:11:44.761Z,97156.25
2023-01-15T10:14:31.402Z,97151.22
2023-01-15T10:16:58.695Z,97158.53
2023-01-15T10:19:31.879Z,97160.50
2023-01-15T10:22:27.762Z,97170.38
2023-01-15T10:25:00.581Z,97172.63
2023-01-15T10:27:33.492Z,97172.19
2023-01-15T10:30:37.423Z,97183.09
2023-01-15T10:33:40.349Z,97184.09
2023-01-15T10:36:37.180Z,97184.47
2023-01-15T10:39:28.925Z,97182.56
2023-01-15T10:42:52.458Z,97181.94
2023-01-15T10:45:50.983Z,97199.41
2023-01-15T10:48:34.904Z,97197.94
2023-01-15T10:51:14.851Z,97198.09
2023-01-15T10:53:53.805Z,97182.03
2023-01-15T10:56:43.129Z,97193.94
2023-01-15T10:59:22.460Z,97186.91
2023-01-15T11:01:55.887Z,97194.75
2023-01-15T11:04:25.819Z,97195.25
2023-01-15T11:06:53.167Z,97208.03
2023-01-15T11:09:24.211Z,97209.75
2023-01-15T11:12:03.972Z,97205.09
2023-01-15T11:15:02.485Z,97196.06
2023-01-15T11:18:00.878Z,97210.88
2023-01-15T11:20:46.117Z,97201.88
2023-01-15T11:23:18.341Z,97199.13
2023-01-15T11:25:54.715Z,97199.84
2023-01-15T11:28:44.795Z,97214.47
2023-01-15T11:31:13.713Z,97215.81
2023-01-15T11:33:55.560Z,97225.09
2023-01-15T11:36:26.963Z,97221.28
2023-01-15T11:38:54.323Z,97227.72
2023-01-15T11:41:45.803Z,97229.31
2023-01-15T11:44:33.994Z,97226.34
2023-01-15T11:47:20.305Z,97234.28
2023-01-15T11:50:14.869Z,97235.00
2023-01-15T11:52:57.342Z,97243.47
2023-01-15T11:55:27.788Z,97247.50
2023-01-15T11:57:57.551Z,97248.44
2023-01-15T12:00:44.294Z,97256.28
2023-01-15T12:03:22.723Z,97254.72
2023-01-15T12:06:07.964Z,97265.28
2023-01-15T12:08:52.950Z,97263.13
2023-01-15T12:12:02.475Z,97270.03
2023-01-15T12:15:06.090Z,97280.72
2023-01-15T12:18:29.853Z,97301.31
2023-01-15T12:21:04.687Z,97304.19
2023-01-15T12:23:58.933Z,97300.41
2023-01-15T12:26:33.022Z,97308.16
2023-01-15T12:29:17.868Z,97319.66
2023-01-15T12:31:55.160Z,97331.63
2023-01-15T12:34:59.289Z,97340.94
2023-01-15T12:37:36.873Z,97338.13
2023-01-15T12:40:49.649Z,97345.56
2023-01-15T12:43:45.247Z,97350.06
2023-01-15T12:46:29.125Z,97358.69
2023-01-15T12:49:25.450Z,97353.19
2023-01-15T12:52:07.376Z,97351.44
2023-01-15T12:54:49.598Z,97355.06
2023-01-15T12:57:43.822Z,97364.94
2023-01-15T13:00:43.626Z,97379.97
2023-01-15T13:03:30.313Z,97391.44
2023-01-15T13:06:06.585Z,97396.03
2023-01-15T13:09:00.468Z,97403.72
2023-01-15T13:11:27.729Z,97422.31
2023-01-15T13:14:00.911Z,97427.59
2023-01-15T13:16:42.408Z,97432.47
2023-01-15T13:19:39.840Z,97424.09
2023-01-15T13:22:17.668Z,97426.22
2023-01-15T13:25:47.429Z,97430.25
2023-01-15T13:28:31.522Z,97407.53
2023-01-15T13:31:32.009Z,97418.81
2023-01-15T13:34:07.363Z,97437.91
2023-01-15T13:36:45.641Z,97455.28
2023-01-15T13:39:27.911Z,97446.22
2023-01-15T13:42:14.585Z,97450.97
2023-01-15T13:44:53.106Z,97457.38
2023-01-15T13:47:27.903Z,97468.31
2023-01-15T13:50:00.440Z,97471.53
2023-01-15T13:52:32.673Z,97464.56
2023-01-15T13:55:12.707Z,97471.44
2023-01-15T13:57:42.493Z,97456.34
2023-01-15T14:00:34.045Z,97475.69
2023-01-15T14:03:23.568Z,97492.31
2023-01-15T14:06:01.100Z,97483.41
2023-01-15T14:08:37.531Z,97497.22
2023-01-15T14:11:04.921Z,97501.66
2023-01-15T14:14:09.462Z,97528.97
2023-01-15T14:17:09.664Z,97527.88
2023-01-15T14:20:12.839Z,97536.66
2023-01-15T14:23:25.552Z,97552.16
2023-01-15T14:26:33.372Z,97577.34
2023-01-15T14:29:40.514Z,97563.59
2023-01-15T14:32:27.287Z,97566.13
2023-01-15T14:34:58.392Z,97562.28
2023-01-15T14:37:46.424Z,97561.31
2023-01-15T14:40:34.607Z,97561.91
2023-01-15T14:43:11.155Z,97565.81
2023-01-15T14:45:46.566Z,97559.88
2023-01-15T14:48:29.056Z,97561.50
2023-01-15T14:51:26.603Z,97563.38
2023-01-15T14:54:06.545Z,97571.94
2023-01-15T14:56:44.791Z,97586.78
2023-01-15T14:59:26.935Z,97602.31
2023-01-15T15:02:15.975Z,97595.34
2023-01-15T15:04:54.040Z,97608.72
2023-01-15T15:07:25.741Z,97622.41
2023-01-15T15:10:25.703Z,97632.53
2023-01-15T15:13:27.963Z,97633.72
2023-01-15T15:16:26.954Z,97631.09
2023-01-15T15:19:02.600Z,97638.53
2023-01-15T15:21:37.559Z,97654.97
2023-01-15T15:24:35.214Z,97653.50
2023-01-15T15:27:24.282Z,97652.44
2023-01-15T15:29:51.305Z,97647.94
2023-01-15T15:32:25.136Z,97656.44
2023-01-15T15:34:55.039Z,97664.22
2023-01-15T15:37:28.762Z,97669.41
2023-01-15T15:40:04.174Z,97657.34
2023-01-15T15:43:01.741Z,97660.56
2023-01-15T15:45:50.030Z,97658.75
2023-01-15T15:48:43.435Z,97667.38
2023-01-15T15:51:49.972Z,97673.31
2023-01-15T15:54:23.501Z,97679.47
2023-01-15T15:57:02.192Z,97684.44
2023-01-15T15:59:46.037Z,97677.34
2023-01-15T16:02:35.373Z,97676.91
2023-01-15T16:05:21.479Z,97673.28
2023-01-15T16:07:48.446Z,97670.63
2023-01-15T16:10:34.395Z,97687.09
2023-01-15T16:13:06.759Z,97674.63
2023-01-15T16:15:41.065Z,97686.44
2023-01-15T16:18:24.256Z,97692.84
2023-01-15T16:20:52.226Z,97680.47
2023-01-15T16:23:29.447Z,97677.47
2023-01-15T16:26:15.896Z,97685.84
2023-01-15T16:28:53.673Z,97676.31
2023-01-15T16:31:22.962Z,97669.81
2023-01-15T16:34:20.214Z,97672.97
2023-01-15T16:36:47.906Z,97686.81
2023-01-15T16:39:45.286Z,97697.66
2023-01-15T16:42:37.169Z,97700.88
2023-01-15T16:45:24.973Z,97713.53
2023-01-15T16:48:08.561Z,97715.91
2023-01-15T16:50:38.830Z,97725.47
2023-01-15T16:53:27.134Z,97734.88
2023-01-15T16:55:57.061Z,97728.09
2023-01-15T16:58:38.429Z,97733.34
2023-01-15T17:01:37.817Z,97729.78
2023-01-15T17:04:23.933Z,97731.13
2023-01-15T17:07:08.567Z,97716.34
2023-01-15T17:09:38.125Z,97719.66
2023-01-15T17:12:36.011Z,97724.69
2023-01-15T17:15:15.289Z,97735.09
2023-01-15T17:17:44.887Z,97719.84
2023-01-15T17:20:14.900Z,97732.06
2023-01-15T17:22:47.562Z,97732.91
2023-01-15T17:25:26.222Z,97730.50
2023-01-15T17:27:56.013Z,97738.97
2023-01-15T17:30:31.267Z,97748.03
2023-01-15T17:32:59.077Z,97747.66
2023-01-15T17:35:38.812Z,97742.50
2023-01-15T17:38:07.445Z,97753.00
2023-01-15T17:40:35.041Z,97756.09
2023-01-15T17:43:02.651Z,97761.44
2023-01-15T17:45:33.091Z,97783.09
2023-01-15T17:48:02.001Z,97781.09
2023-01-15T17:50:29.249Z,97779.31
2023-01-15T17:52:56.147Z,97786.56
2023-01-15T17:55:42.920Z,97802.81
2023-01-15T17:58:33.396Z,97793.34
2023-01-15T18:01:24.056Z,97801.88
2023-01-15T18:04:12.904Z,97795.97
2023-01-15T18:06:47.238Z,97801.16
2023-01-15T18:09:16.279Z,97804.75
2023-01-15T18:11:43.491Z,97808.53
2023-01-15T18:14:10.414Z,97816.13
2023-01-15T18:16:39.020Z,97836.03
2023-01-15T18:19:06.027Z,97834.94
2023-01-15T18:21:37.237Z,97845.19
2023-01-15T18:24:04.457Z,97848.06
2023-01-15T18:26:31.607Z,97849.75
2023-01-15T18:28:58.971Z,97840.31
2023-01-15T18:31:26.292Z,97851.66
2023-01-15T18:33:53.196Z,97837.38
2023-01-15T18:36:20.358Z,97834.69
2023-01-15T18:38:48.774Z,97835.53
2023-01-15T18:41:36.307Z,97830.34
2023-01-15T18:44:43.913Z,97844.28
2023-01-15T18:47:15.307Z,97837.25
2023-01-15T18:49:45.247Z,97835.53
2023-01-15T18:52:34.199Z,97846.91
2023-01-15T18:55:28.283Z,97849.97
2023-01-15T18:57:57.092Z,97840.06
2023-01-15T19:00:25.249Z,97857.97
2023-01-15T19:02:52.811Z,97853.38
2023-01-15T19:05:19.966Z,97854.19
2023-01-15T19:07:47.985Z,97838.06
2023-01-15T19:10:17.968Z,97838.94
2023-01-15T19:12:45.382Z,97834.06
2023-01-15T19:15:34.639Z,97820.66
2023-01-15T19:18:21.339Z,97817.09
2023-01-15T19:20:48.466Z,97815.25
2023-01-15T19:23:15.676Z,97810.97
2023-01-15T19:25:51.077Z,97810.66
2023-01-15T19:28:21.872Z,97802.91
2023-01-15T19:31:10.014Z,97797.97
2023-01-15T19:33:38.030Z,97796.13
2023-01-15T19:36:05.832Z,97801.22
2023-01-15T19:38:36.917Z,97805.47
2023-01-15T19:41:31.693Z,97798.56
2023-01-15T19:44:18.027Z,97795.06
2023-01-15T19:47:04.708Z,97795.47
2023-01-15T19:49:56.196Z,97793.78
2023-01-15T19:52:35.225Z,97791.09
2023-01-15T19:55:10.862Z,97790.50
2023-01-15T19:57:44.010Z,97794.84
2023-01-15T20:00:19.765Z,97791.50
2023-01-15T20:02:47.114Z,97791.09
2023-01-15T20:05:16.213Z,97796.34
2023-01-15T20:07:43.868Z,97786.66
2023-01-15T20:10:16.013Z,97791.50
2023-01-15T20:13:01.960Z,97784.81
2023-01-15T20:15:30.486Z,97794.50
2023-01-15T20:17:59.065Z,97806.81
2023-01-15T20:20:27.084Z,97816.06
2023-01-15T20:22:57.816Z,97812.38
2023-01-15T20:25:27.518Z,97815.81
2023-01-15T20:27:58.873Z,97814.78
2023-01-15T20:30:27.632Z,97814.47
2023-01-15T20:32:58.265Z,97812.72
2023-01-15T20:35:31.428Z,97823.31
2023-01-15T20:37:59.095Z,97820.38
2023-01-15T20:40:26.992Z,97822.97
2023-01-15T20:43:13.588Z,97821.19
2023-01-15T20:45:41.244Z,97824.81
2023-01-15T20:48:11.372Z,97817.63
2023-01-15T20:51:02.673Z,97821.28
2023-01-15T20:53:36.124Z,97817.00
2023-01-15T20:56:13.199Z,97815.00
2023-01-15T20:58:41.190Z,97813.72
2023-01-15T21:01:10.919Z,97814.59
2023-01-15T21:03:39.233Z,97814.50
2023-01-15T21:06:08.514Z,97806.53
2023-01-15T21:08:36.646Z,97795.34
2023-01-15T21:11:04.266Z,97797.34
2023-01-15T21:13:31.400Z,97790.63
2023-01-15T21:16:03.143Z,97777.69
2023-01-15T21:18:35.583Z,97774.19
2023-01-15T21:21:23.071Z,97769.75
2023-01-15T21:23:50.402Z,97774.19
2023-01-15T21:26:17.721Z,97765.41
2023-01-15T21:28:45.120Z,97760.00
2023-01-15T21:31:14.450Z,97766.16
2023-01-15T21:33:41.503Z,97767.06
2023-01-15T21:36:14.712Z,97768.56
2023-01-15T21:38:42.016Z,97770.28
2023-01-15T21:41:48.590Z,97769.63
2023-01-15T21:44:34.832Z,97758.56
2023-01-15T21:47:06.119Z,97750.59
2023-01-15T21:49:34.366Z,97749.03
2023-01-15T21:52:05.515Z,97754.09
2023-01-15T21:54:32.872Z,97750.59
2023-01-15T21:57:00.258Z,97754.88
2023-01-15T21:59:28.058Z,97761.84
2023-01-15T22:01:57.561Z,97759.34
2023-01-15T22:04:28.139Z,97748.25
2023-01-15T22:06:56.482Z,97749.03
2023-01-15T22:09:23.787Z,97747.19
2023-01-15T22:11:52.585Z,97750.66
2023-01-15T22:14:26.824Z,97756.72
2023-01-15T22:16:56.722Z,97755.03
2023-01-15T22:19:27.771Z,97759.38
2023-01-15T22:22:02.444Z,97760.19
2023-01-15T22:24:32.497Z,97754.81
2023-01-15T22:27:02.215Z,97754.28
2023-01-15T22:29:40.587Z,97749.53
2023-01-15T22:32:11.672Z,97746.84
2023-01-15T22:34:39.089Z,97740.97
2023-01-15T22:37:06.581Z,97738.78
2023-01-15T22:39:34.258Z,97745.22
2023-01-15T22:42:19.664Z,97738.84
2023-01-15T22:44:48.941Z,97740.41
2023-01-15T22:47:17.630Z,97733.78
2023-01-15T22:49:44.576Z,97724.09
2023-01-15T22:52:12.180Z,97713.41
2023-01-15T22:54:39.394Z,97708.16
2023-01-15T22:57:06.641Z,97708.28
2023-01-15T22:59:33.596Z,97699.88
2023-01-15T23:02:00.954Z,97698.53
2023-01-15T23:04:28.113Z,97702.13
2023-01-15T23:06:55.349Z,97689.28
2023-01-15T23:09:24.084Z,97688.56
2023-01-15T23:11:51.744Z,97695.25
2023-01-15T23:14:21.292Z,97689.00
2023-01-15T23:16:49.660Z,97687.78
2023-01-15T23:19:19.004Z,97690.94
2023-01-15T23:21:46.251Z,97686.50
2023-01-15T23:24:13.311Z,97680.34
2023-01-15T23:26:40.861Z,97676.72
2023-01-15T23:29:07.784Z,97674.44
2023-01-15T23:31:35.162Z,97673.13
2023-01-15T23:34:02.185Z,97665.88
2023-01-15T23:36:29.469Z,97675.84
2023-01-15T23:38:56.453Z,97674.22
2023-01-15T23:41:44.117Z,97676.84
2023-01-15T23:44:36.654Z,97681.28
2023-01-15T23:47:05.146Z,97666.25
2023-01-15T23:49:32.161Z,97658.53
2023-01-15T23:51:59.700Z,97649.28
2023-01-15T23:54:28.834Z,97650.84
2023-01-15T23:57:00.926Z,97635.22
2023-01-15T23:59:29.013Z,97632.53
